KORL

Executive Airport

Orlando, Florida, USA
METAR KORL 191653Z 19005KT 10SM FEW060 32/23 A3007 RMK AO2 SLP185 T03220233
Observed Flight Rules
Aug-19 @ 16:53 UTC (20 minutes ago) Visual Flight Rules
Wind Visibility Clouds
190° at 5 knots 10 miles
  • Few at 6,000' AGL
Temperatures Readings
Current 32°C / 90°F
Dewpoint 23°C / 73°F
Humidity 59%
Altimeter 30.07" Hg
Pressure 1018.5 hPa
Elevation 37
METAR KORL 191653Z 19005KT 10SM FEW060 32/23 A3007 RMK AO2 SLP185 T03220233
Observed Flight Rules
Aug-19 @ 16:53 UTC
(20 minutes ago)
VFR
Wind Visibility
190° at 5 knots 10 miles
Clouds
  • Few at 6,000' AGL
Temperature Dewpoint
32°C / 90°F 23°C / 73°F
Humidity Altimeter Pressure
59% 30.07" Hg 1018.5 hPa